Weather at Lomé–Tokoin International Airport

Public forecast

Using degrees Celsius for public forecast. Weather courtesy of forecast.io.

Current aviation weather report (METAR) for Lomé–Tokoin International Airport

2023/04/01 14:00 (retrieved 52 minutes ago)

DXXX 011400Z 21011KT 180V240 9999 FEW016 32/25 Q1010 NOSIG

Aviation forecast (TAF) for Lomé–Tokoin International Airport

Forecast is more than 6 hours old.

2023/04/01 06:27 (retrieved 8 hours ago)

TAF DXXX 010500Z 0106/0212 VRB03KT 9999 FEW012 BECMG 0109/0111 20010KT PROB30 TEMPO 0115/0121 TS BECMG 0200/0202 26005KT PROB30 0203/0209 4000 TSRA BKN010 FEW020CB